Valeria, Iowa
Current Conditions -  °F | °C
As of 3:55 AM on Sunday 23 Nov 2014 (Local Time) from KTNU Reporting Station
Overcast Overcast  
Wind Chill: 52°   Ceiling: 2400
Heat Index: 52°   Visibility: 10mi
Dew Point: 50°   Wind: 13mph
Humidity: 94%   Direction: 180°S
Pressure: 29.59"   Gusts: NA
Location:  41.6475°N, 93.2926°W
Report Text: KTNU 230955Z AUTO 18011KT 10SM SCT015 OVC024 11/10 A2959 RMK AO2
Loading
Personal Weather Stations






























Interactive Weather Map New forecast layout! Learn more

10-Day Weather Forecast

Advertisements
Track Severe Weather on mobile